createdAt,value
2018-12-15T00:04:28.101Z,49.7
2018-12-15T00:14:31.514Z,49.1
2018-12-15T00:24:35.958Z,49.8
2018-12-15T00:34:39.368Z,49.8
2018-12-15T00:44:42.787Z,49.4
2018-12-15T00:54:46.219Z,49.4
2018-12-15T01:04:49.626Z,49.6
2018-12-15T01:14:53.038Z,49.1
2018-12-15T01:24:56.472Z,49.3
2018-12-15T01:34:59.888Z,49
2018-12-15T01:45:03.315Z,48.9
2018-12-15T01:55:06.745Z,49.3
2018-12-15T02:05:10.171Z,49.2
2018-12-15T02:15:13.567Z,49.8
2018-12-15T02:25:17.004Z,49.2
2018-12-15T02:35:20.419Z,49.4
2018-12-15T02:45:23.829Z,49.8
2018-12-15T02:55:27.262Z,49.8
2018-12-15T03:05:30.671Z,50.2
2018-12-15T03:15:34.064Z,49.9
2018-12-15T03:25:37.467Z,50.4
2018-12-15T03:35:40.921Z,49.8
2018-12-15T03:45:44.355Z,50.2
2018-12-15T03:55:47.775Z,49.2
2018-12-15T04:05:51.211Z,49.5
2018-12-15T04:15:54.615Z,49.6
2018-12-15T04:25:58.032Z,49.3
2018-12-15T04:36:01.481Z,49.2
2018-12-15T04:46:04.886Z,49.1
2018-12-15T04:56:08.322Z,48.7
2018-12-15T05:06:11.749Z,48.9
2018-12-15T05:16:15.249Z,48.1
2018-12-15T05:26:18.676Z,48.6
2018-12-15T05:36:22.099Z,48.3
2018-12-15T05:46:25.574Z,48.3
2018-12-15T05:56:29.022Z,48.3
2018-12-15T06:06:32.475Z,48.3
2018-12-15T06:16:35.927Z,48.8
2018-12-15T06:26:39.371Z,48.3
2018-12-15T06:36:42.796Z,48.4
2018-12-15T06:46:46.221Z,48.2
2018-12-15T06:56:49.675Z,48.1
2018-12-15T07:06:53.074Z,47.9
2018-12-15T07:16:56.512Z,48.2
2018-12-15T07:26:59.932Z,48.5
2018-12-15T07:37:03.359Z,48.1
2018-12-15T07:47:06.766Z,48.1
2018-12-15T07:57:10.181Z,48.3
2018-12-15T08:07:13.563Z,48.3
2018-12-15T08:17:16.970Z,48.3
2018-12-15T08:27:20.374Z,47.8
2018-12-15T08:37:24.799Z,47.8
2018-12-15T08:47:28.231Z,47.5
2018-12-15T08:57:31.655Z,47.5
2018-12-15T09:07:35.082Z,47.1
2018-12-15T09:17:38.490Z,46.5
2018-12-15T09:27:41.900Z,46.8
2018-12-15T09:37:45.334Z,46.9
2018-12-15T09:47:48.789Z,46.7
2018-12-15T09:57:52.187Z,46.3
2018-12-15T10:07:55.611Z,46.5
2018-12-15T10:17:59.047Z,46.1
2018-12-15T10:28:02.477Z,46.1
2018-12-15T10:38:05.905Z,46.1
2018-12-15T10:48:09.303Z,46.2
2018-12-15T10:58:12.724Z,45.9
2018-12-15T11:08:16.131Z,46
2018-12-15T11:18:19.538Z,46.2
2018-12-15T11:28:22.952Z,45.8
2018-12-15T11:38:26.344Z,45.6
2018-12-15T11:48:29.744Z,46.2
2018-12-15T11:58:33.180Z,47
2018-12-15T12:08:36.625Z,46.3
2018-12-15T12:18:40.084Z,46.7
2018-12-15T12:28:43.519Z,45.7
2018-12-15T12:38:46.935Z,45.1
2018-12-15T12:48:50.342Z,46
2018-12-15T12:58:53.768Z,45.2
2018-12-15T13:08:57.219Z,46.1
2018-12-15T13:19:00.661Z,45.9
2018-12-15T13:29:04.088Z,45.3
2018-12-15T13:39:07.526Z,44.9
2018-12-15T13:49:10.971Z,45.5
2018-12-15T13:59:14.405Z,45.4
2018-12-15T14:09:17.837Z,45.4
2018-12-15T14:19:21.256Z,44.8
2018-12-15T14:29:24.659Z,45.2
2018-12-15T14:39:28.146Z,44.8
2018-12-15T14:49:31.563Z,44.7
2018-12-15T14:59:35.010Z,45.1
2018-12-15T15:09:38.403Z,44.9
2018-12-15T15:19:41.836Z,44.8
2018-12-15T15:29:45.256Z,45.5
2018-12-15T15:39:48.690Z,46
2018-12-15T15:49:52.112Z,45.7
2018-12-15T15:59:55.509Z,46.6
2018-12-15T16:09:58.967Z,46.1
2018-12-15T16:20:02.453Z,46.7
2018-12-15T16:30:05.848Z,47.1
2018-12-15T16:40:09.288Z,46.2
2018-12-15T16:50:12.674Z,46.5
2018-12-15T17:00:16.112Z,46.3
2018-12-15T17:10:19.554Z,46.3
2018-12-15T17:20:22.971Z,46.7
2018-12-15T17:30:26.391Z,47.1
2018-12-15T17:40:29.830Z,47.3
2018-12-15T17:50:33.252Z,48.4
2018-12-15T18:00:36.693Z,48.8
2018-12-15T18:10:40.158Z,48.2
2018-12-15T18:20:43.581Z,48.4
2018-12-15T18:30:47.021Z,49.3
2018-12-15T18:40:50.442Z,49.2
2018-12-15T18:50:53.883Z,48.7
2018-12-15T19:00:57.281Z,49
2018-12-15T19:11:00.680Z,49.3
2018-12-15T19:21:04.121Z,49.8
2018-12-15T19:31:07.543Z,50.4
2018-12-15T19:41:10.944Z,50.3
2018-12-15T19:51:14.370Z,50.3
2018-12-15T20:01:17.804Z,50.8
2018-12-15T20:11:21.213Z,50.7
2018-12-15T20:21:24.659Z,50.7
2018-12-15T20:31:28.055Z,51
2018-12-15T20:41:31.473Z,51.3
2018-12-15T20:51:34.893Z,51.1
2018-12-15T21:01:38.323Z,51.4
2018-12-15T21:11:41.763Z,51.3
2018-12-15T21:21:49.911Z,50.9
2018-12-15T21:31:57.067Z,51.6
2018-12-15T21:42:00.514Z,51.5
2018-12-15T21:52:03.952Z,51.6
2018-12-15T22:02:07.360Z,51.6
2018-12-15T22:12:10.771Z,51.9
2018-12-15T22:22:14.213Z,51.5
2018-12-15T22:32:17.622Z,51.4
2018-12-15T22:42:21.032Z,52.4
2018-12-15T22:52:24.442Z,52.1
2018-12-15T23:02:27.856Z,51.9
2018-12-15T23:12:31.285Z,51.6
2018-12-15T23:22:34.709Z,51.8
2018-12-15T23:32:38.103Z,51.3
2018-12-15T23:42:41.518Z,51.2
2018-12-15T23:52:44.951Z,50.9
